首页
METAR-TAF:

METAR-TAF

机场 :

路易斯·穆尼奥斯·马林国际机场

圣胡安, 波多黎哥, 美国

纬度: 18-27N, 经度: 066-00W, 海拔: 3米

当前天气观测

该预报发布于42分钟前的16:56 UTC
风速14节,风向东转东南,有时为24节阵风
温度 32°C
湿度 67%
气压 1017 hPa
能見度: 16.1公里
少量云层高于2600英尺
散云层高于3900英尺
散云层高于6500英尺

METAR: TJSJ 241656Z 11014G24KT 10SM FEW026 SCT039 SCT065 32/25 A3002 RMK AO2 PK WND 08026/1635 SLP164 VCSH SE-SW W T03220250

时间: 13:38 (17:38 UTC)

预报

该预报发布于2小时和58分钟前的14:40 UTC
预报有效从24日的 15点(UTC)到 25日的 12点(UTC)
风速11节,风向
能見度: 10公里
少量云层高于2500英尺
散云层高于4000英尺
附近有阵雨
从 24日的 1600点(UTC)
风速15节,风向
能見度: 10公里
散云层高于2500英尺, 积雨云.
散云层高于4000英尺
附近有雷暴
从 24日的 2200点(UTC)
风速7节,风向东转东南
能見度: 10公里
少量云层高于3000英尺
散云层高于6000英尺
附近有阵雨,

TAF: TJSJ 241440Z 2415/2512 09011KT P6SM VCSH FEW025 SCT040 FM241600 10015KT P6SM VCTS SCT025CB SCT040 FM242200 11007KT P6SM VCSH FEW030 SCT060

超过4000个机场的气象观测和天气预报(METAR&TAF报告)。

可查询的气象台以黄色和红色小点在地图上表示。

将鼠标移到小点上方,可查看气象台名称。

然后点击查看天气观测和预报。

如需切换地图:点击带黑十字的绿色按钮放大地图;点击带横线的绿色按钮缩小地图;或者点击绿色箭头查看邻近地区的地图。


METAR-TAF: